Time;durP1;ratioP1;P1;durP2;ratioP2;P2;SDS_P1;SDS_P2;PMS_P1;PMS_P2;Temp;Humidity;BMP_temperature;BMP_pressure;BME280_temperature;BME280_humidity;BME280_pressure;Samples;Min_cycle;Max_cycle;Signal;HPM_P1;HPM_P2
2023/08/16 00:01:46;;;;;;;9.80;8.90;;;;;;;25.56;72.70;99372.41;5090360;28;20188;-71
2023/08/16 00:04:13;;;;;;;9.40;8.60;;;;;;;25.50;72.91;99377.13;5074034;28;20196;-71
2023/08/16 00:06:43;;;;;;;10.03;9.13;;;;;;;25.52;72.92;99374.13;5077744;28;20272;-71
2023/08/16 00:09:10;;;;;;;9.37;8.57;;;;;;;25.64;72.69;99375.25;5094490;28;20183;-71
2023/08/16 00:11:36;;;;;;;9.60;8.80;;;;;;;25.68;72.84;99372.78;5093170;28;20192;-70
2023/08/16 00:14:04;;;;;;;8.90;8.30;;;;;;;25.65;73.18;99368.72;5094350;28;20195;-70
2023/08/16 00:16:30;;;;;;;10.67;9.30;;;;;;;25.69;72.35;99368.94;5094388;28;20272;-70
2023/08/16 00:18:57;;;;;;;9.90;9.07;;;;;;;25.67;72.39;99371.13;5094216;28;20272;-70
2023/08/16 00:21:24;;;;;;;9.93;9.20;;;;;;;25.68;71.99;99378.22;5093250;28;20588;-73
2023/08/16 00:23:52;;;;;;;9.67;8.77;;;;;;;25.62;72.56;99382.91;5074025;28;20200;-72
2023/08/16 00:26:18;;;;;;;8.73;8.20;;;;;;;25.61;72.92;99383.22;5073605;28;20204;-70
2023/08/16 00:28:47;;;;;;;10.57;9.00;;;;;;;25.68;72.80;99372.78;5073981;28;20227;-72
2023/08/16 00:31:14;;;;;;;9.37;8.67;;;;;;;25.68;72.25;99381.72;5073807;28;20196;-72
2023/08/16 00:33:40;;;;;;;9.00;8.47;;;;;;;25.63;72.58;99381.81;5074620;28;20716;-71
2023/08/16 00:36:08;;;;;;;9.30;8.40;;;;;;;25.52;73.60;99368.69;5073522;28;20890;-71
2023/08/16 00:38:35;;;;;;;9.87;8.93;;;;;;;25.50;73.43;99365.44;5073838;28;20224;-71
2023/08/16 00:41:03;;;;;;;9.33;8.73;;;;;;;25.56;72.73;99375.13;5073516;28;20636;-71
2023/08/16 00:43:30;;;;;;;9.90;8.97;;;;;;;25.55;72.58;99373.53;5088894;28;20203;-70
2023/08/16 00:45:56;;;;;;;9.50;8.70;;;;;;;25.46;73.20;99380.72;5093562;28;20191;-72
2023/08/16 00:48:23;;;;;;;9.90;8.73;;;;;;;25.48;73.04;99381.25;5094464;28;20220;-72
2023/08/16 00:50:50;;;;;;;14.00;9.33;;;;;;;25.53;73.01;99378.44;5093350;28;20191;-72
2023/08/16 00:53:19;;;;;;;9.10;8.50;;;;;;;25.58;73.29;99381.06;5077745;28;20202;-70
2023/08/16 00:55:46;;;;;;;10.87;8.73;;;;;;;25.58;72.77;99372.91;5073850;28;20191;-68
2023/08/16 00:58:15;;;;;;;9.60;8.73;;;;;;;25.62;72.40;99373.94;5073729;28;20195;-70
2023/08/16 01:00:42;;;;;;;9.27;8.77;;;;;;;25.67;71.71;99373.84;5073138;28;20706;-70
2023/08/16 01:03:08;;;;;;;10.13;9.23;;;;;;;25.64;72.01;99377.97;5085762;28;20188;-70
2023/08/16 01:05:35;;;;;;;10.33;9.53;;;;;;;25.58;73.18;99376.47;5093502;28;20256;-70
2023/08/16 01:08:03;;;;;;;9.37;8.50;;;;;;;25.62;72.71;99377.47;5077713;28;20281;-70
2023/08/16 01:10:40;;;;;;;10.10;9.07;;;;;;;25.60;71.80;99360.63;5076559;28;20695;-70
2023/08/16 01:13:12;;;;;;;9.97;9.10;;;;;;;25.80;71.71;99386.72;5093629;28;20187;-72
2023/08/16 01:15:45;;;;;;;9.53;8.67;;;;;;;25.84;71.77;99377.66;5093412;28;20253;-71
2023/08/16 01:18:14;;;;;;;10.53;9.57;;;;;;;25.93;71.21;99380.50;5093136;28;20240;-71
2023/08/16 01:20:42;;;;;;;9.63;8.80;;;;;;;25.99;70.91;99379.31;5088642;28;20223;-72
2023/08/16 01:23:15;;;;;;;10.10;8.37;;;;;;;26.10;70.39;99383.50;5073457;28;20195;-72
2023/08/16 01:25:48;;;;;;;9.30;8.50;;;;;;;26.16;70.33;99382.28;5072576;28;20234;-70
2023/08/16 01:28:18;;;;;;;10.40;8.90;;;;;;;26.22;69.79;99383.81;5072534;28;20315;-72
2023/08/16 01:30:45;;;;;;;10.07;9.30;;;;;;;26.24;69.89;99381.59;5090507;28;20207;-72
2023/08/16 01:33:13;;;;;;;9.13;8.43;;;;;;;26.31;69.80;99387.47;5092934;28;20611;-71
2023/08/16 01:35:41;;;;;;;9.93;9.07;;;;;;;26.25;69.76;99383.22;5092764;28;20191;-71
2023/08/16 01:38:09;;;;;;;9.60;8.70;;;;;;;26.20;70.26;99377.84;5092417;28;20223;-71
2023/08/16 01:40:39;;;;;;;8.93;8.33;;;;;;;26.18;70.29;99380.91;5091579;28;20199;-70
2023/08/16 01:43:10;;;;;;;9.57;8.60;;;;;;;26.15;70.42;99384.22;5092307;28;20187;-71
2023/08/16 01:45:38;;;;;;;9.27;8.67;;;;;;;26.19;70.50;99382.50;5092576;28;20179;-72
2023/08/16 01:48:07;;;;;;;9.20;8.40;;;;;;;26.23;70.09;99380.81;5092216;28;20272;-70
2023/08/16 01:50:34;;;;;;;10.40;9.27;;;;;;;26.24;69.99;99385.13;5075498;28;20196;-71
2023/08/16 01:53:01;;;;;;;9.07;8.57;;;;;;;26.13;70.84;99380.97;5072317;28;20200;-78
2023/08/16 01:55:28;;;;;;;9.47;8.80;;;;;;;26.18;70.68;99378.19;5072033;28;20273;-76
2023/08/16 01:57:55;;;;;;;9.37;8.87;;;;;;;26.28;69.67;99382.59;5072402;28;20200;-71
2023/08/16 02:00:21;;;;;;;9.50;8.80;;;;;;;26.33;69.43;99386.06;5085084;28;20190;-72
2023/08/16 02:02:49;;;;;;;9.43;8.67;;;;;;;26.33;69.51;99380.59;5092370;28;20256;-72
2023/08/16 02:05:16;;;;;;;8.90;8.27;;;;;;;26.26;69.87;99374.75;5091590;28;20191;-74
2023/08/16 02:07:43;;;;;;;10.63;9.00;;;;;;;26.27;69.49;99379.09;5079367;28;20296;-71
2023/08/16 02:10:10;;;;;;;8.50;7.80;;;;;;;26.28;69.81;99386.16;5083328;28;20273;-72
2023/08/16 02:12:37;;;;;;;9.43;8.63;;;;;;;26.25;69.50;99383.22;5092276;28;20188;-73
2023/08/16 02:15:03;;;;;;;15.90;9.53;;;;;;;26.18;70.02;99375.47;5092659;28;20257;-71
2023/08/16 02:17:30;;;;;;;9.67;8.90;;;;;;;26.18;69.89;99372.75;5087829;28;20203;-70
2023/08/16 02:19:58;;;;;;;10.87;9.23;;;;;;;26.12;69.80;99373.09;5072089;28;20188;-71
2023/08/16 02:22:25;;;;;;;9.07;8.27;;;;;;;26.03;70.49;99372.19;5070513;28;20192;-71
2023/08/16 02:24:52;;;;;;;9.13;8.53;;;;;;;26.07;70.27;99381.38;5070837;28;20242;-71
2023/08/16 02:27:18;;;;;;;10.20;9.50;;;;;;;26.14;69.54;99376.34;5071195;28;20234;-71
2023/08/16 02:29:45;;;;;;;9.47;8.87;;;;;;;26.18;69.29;99371.91;5091938;28;20729;-70
2023/08/16 02:32:12;;;;;;;10.80;9.20;;;;;;;26.28;68.94;99377.16;5091083;28;20252;-70
2023/08/16 02:34:39;;;;;;;10.13;9.27;;;;;;;26.20;69.74;99372.41;5092298;28;20262;-70
2023/08/16 02:37:07;;;;;;;9.13;8.47;;;;;;;26.16;69.88;99374.13;5091754;28;20191;-70
2023/08/16 02:39:33;;;;;;;13.77;9.93;;;;;;;26.12;69.90;99367.66;5071486;28;20612;-70
2023/08/16 02:42:01;;;;;;;12.90;10.20;;;;;;;26.19;69.59;99368.06;5071369;28;20198;-70
2023/08/16 02:44:28;;;;;;;10.10;9.47;;;;;;;26.21;69.33;99361.22;5071142;28;20605;-70
2023/08/16 02:46:54;;;;;;;10.83;9.83;;;;;;;26.33;68.39;99371.66;5071205;28;20796;-70
2023/08/16 02:49:21;;;;;;;10.33;9.53;;;;;;;26.36;68.35;99371.00;5088203;28;20215;-70
2023/08/16 02:51:48;;;;;;;9.60;9.00;;;;;;;26.33;68.25;99361.53;5091698;28;20332;-70
2023/08/16 02:54:16;;;;;;;12.77;9.80;;;;;;;26.39;67.95;99373.16;5091417;28;20196;-70
2023/08/16 02:56:43;;;;;;;11.90;10.77;;;;;;;26.25;69.32;99372.34;5091606;28;20544;-70
2023/08/16 02:59:14;;;;;;;13.27;11.97;;;;;;;26.08;69.68;99377.53;5075603;28;20199;-71
2023/08/16 03:01:41;;;;;;;11.93;10.77;;;;;;;26.02;70.12;99379.56;5071033;28;20652;-70
2023/08/16 03:04:08;;;;;;;11.63;10.80;;;;;;;26.04;70.47;99371.88;5071124;28;20732;-71
2023/08/16 03:06:35;;;;;;;12.67;10.87;;;;;;;25.93;70.64;99375.06;5074325;28;20202;-71
2023/08/16 03:09:02;;;;;;;13.30;11.73;;;;;;;25.77;70.49;99365.53;5089573;28;20284;-70
2023/08/16 03:11:30;;;;;;;14.53;13.13;;;;;;;25.75;71.09;99373.19;5091467;28;20252;-71
2023/08/16 03:13:56;;;;;;;18.17;12.53;;;;;;;25.64;71.77;99371.75;5090896;28;20249;-71
2023/08/16 03:16:23;;;;;;;12.70;11.37;;;;;;;25.46;73.05;99369.84;5090288;28;20256;-71
2023/08/16 03:18:50;;;;;;;13.13;11.90;;;;;;;25.29;73.12;99364.13;5078254;28;20257;-72
2023/08/16 03:21:16;;;;;;;12.47;11.37;;;;;;;25.14;73.83;99361.63;5071116;28;20192;-72
2023/08/16 03:23:43;;;;;;;13.67;11.90;;;;;;;25.06;74.90;99363.06;5071219;28;20200;-73
2023/08/16 03:26:10;;;;;;;17.40;12.60;;;;;;;25.00;75.00;99362.31;5073680;28;20198;-72
2023/08/16 03:28:38;;;;;;;17.60;12.00;;;;;;;24.93;75.40;99367.31;5090718;28;20219;-72
2023/08/16 03:31:07;;;;;;;17.80;12.63;;;;;;;24.89;75.87;99363.56;5090823;28;20220;-71
2023/08/16 03:33:34;;;;;;;13.00;11.67;;;;;;;24.86;76.44;99358.72;5090917;28;20195;-70
2023/08/16 03:36:01;;;;;;;13.40;11.60;;;;;;;24.86;76.22;99360.63;5089208;28;20210;-70
2023/08/16 03:38:27;;;;;;;12.50;11.57;;;;;;;24.81;76.29;99356.06;5083720;28;20247;-70
2023/08/16 03:40:54;;;;;;;13.17;11.93;;;;;;;24.79;76.55;99358.25;5070416;28;20664;-70
2023/08/16 03:43:21;;;;;;;13.20;11.97;;;;;;;24.74;77.01;99357.50;5071212;28;20732;-70
2023/08/16 03:45:50;;;;;;;15.93;10.97;;;;;;;24.72;77.41;99357.81;5070920;28;20191;-70
2023/08/16 03:48:16;;;;;;;12.40;11.13;;;;;;;24.65;77.58;99360.06;5070870;28;20223;-70
2023/08/16 03:50:43;;;;;;;12.83;11.63;;;;;;;24.67;77.38;99355.16;5070544;28;20200;-71
2023/08/16 03:53:11;;;;;;;11.60;10.60;;;;;;;24.75;77.22;99368.09;5085265;28;20203;-72
2023/08/16 03:55:37;;;;;;;11.53;10.10;;;;;;;24.80;77.42;99369.94;5090620;28;20377;-71
2023/08/16 03:58:04;;;;;;;12.17;11.00;;;;;;;24.98;76.10;99369.97;5090297;28;20195;-71
2023/08/16 04:00:31;;;;;;;12.07;10.87;;;;;;;25.18;75.07;99366.16;5090647;28;20245;-72
2023/08/16 04:02:59;;;;;;;11.57;9.97;;;;;;;25.36;74.23;99376.25;5088885;28;20195;-71
2023/08/16 04:05:25;;;;;;;11.50;10.40;;;;;;;25.54;73.47;99377.34;5089757;28;20636;-71
2023/08/16 04:07:52;;;;;;;11.50;10.50;;;;;;;25.69;72.42;99379.81;5076530;28;20608;-71
2023/08/16 04:10:19;;;;;;;11.63;10.70;;;;;;;25.84;72.29;99383.09;5069988;28;20520;-72
2023/08/16 04:12:46;;;;;;;11.40;10.60;;;;;;;25.96;71.72;99379.94;5081185;28;20779;-74
2023/08/16 04:15:12;;;;;;;11.13;10.27;;;;;;;26.08;70.91;99388.41;5090716;28;20195;-75
2023/08/16 04:17:40;;;;;;;22.80;10.30;;;;;;;26.21;70.31;99387.66;5089931;28;20203;-73
2023/08/16 04:20:10;;;;;;;11.63;10.47;;;;;;;26.33;69.81;99385.25;5090226;28;20192;-72
2023/08/16 04:22:39;;;;;;;16.67;10.50;;;;;;;26.42;69.18;99386.19;5079353;28;20669;-72
2023/08/16 04:25:08;;;;;;;11.47;10.33;;;;;;;26.52;68.64;99385.97;5070395;28;20192;-72
2023/08/16 04:27:34;;;;;;;14.90;9.63;;;;;;;26.58;68.89;99388.31;5071823;28;20242;-72
2023/08/16 04:30:01;;;;;;;10.73;9.83;;;;;;;26.66;68.06;99390.34;5075108;28;20272;-74
2023/08/16 04:32:29;;;;;;;10.80;9.97;;;;;;;26.67;68.35;99391.97;5093648;28;20206;-72
2023/08/16 04:34:56;;;;;;;10.60;9.70;;;;;;;26.64;68.77;99386.31;5093974;28;20195;-74
2023/08/16 04:37:24;;;;;;;11.50;9.97;;;;;;;26.70;68.18;99388.63;5093673;28;20234;-72
2023/08/16 04:39:50;;;;;;;14.07;9.60;;;;;;;26.69;68.58;99386.19;5092269;28;20299;-73
2023/08/16 04:42:18;;;;;;;10.90;9.50;;;;;;;26.65;68.90;99393.34;5093369;28;20728;-73
2023/08/16 04:44:45;;;;;;;15.53;9.80;;;;;;;26.67;68.50;99391.16;5093216;28;20227;-71
2023/08/16 04:47:12;;;;;;;10.60;9.57;;;;;;;26.69;68.46;99388.91;5093849;28;20191;-72
2023/08/16 04:49:39;;;;;;;10.37;9.53;;;;;;;26.76;68.46;99397.50;5093513;28;20603;-71
2023/08/16 04:52:06;;;;;;;12.50;9.73;;;;;;;26.72;68.37;99394.59;5074072;28;20250;-71
2023/08/16 04:54:34;;;;;;;10.40;9.40;;;;;;;26.80;67.71;99393.88;5073691;28;20200;-71
2023/08/16 04:57:01;;;;;;;11.60;9.20;;;;;;;26.83;68.21;99400.63;5073271;28;20667;-72
2023/08/16 04:59:28;;;;;;;11.57;9.50;;;;;;;26.88;67.43;99400.53;5091181;28;20195;-72
2023/08/16 05:01:54;;;;;;;11.03;9.37;;;;;;;26.90;67.90;99396.38;5092128;28;20245;-72
2023/08/16 05:04:21;;;;;;;14.63;10.30;;;;;;;26.90;68.43;99407.28;5093071;28;20759;-71
2023/08/16 05:06:48;;;;;;;10.40;9.00;;;;;;;26.82;68.54;99404.47;5093555;28;20249;-71
2023/08/16 05:09:14;;;;;;;10.30;9.40;;;;;;;26.75;68.87;99404.88;5076219;28;20220;-70
2023/08/16 05:11:43;;;;;;;13.03;9.23;;;;;;;26.69;68.99;99400.63;5073570;28;20625;-71
2023/08/16 05:14:09;;;;;;;9.67;9.03;;;;;;;26.71;69.23;99395.69;5072539;28;20196;-72
2023/08/16 05:16:36;;;;;;;11.17;9.27;;;;;;;26.64;69.33;99400.75;5072289;28;20743;-69
2023/08/16 05:19:03;;;;;;;10.07;9.00;;;;;;;26.66;69.51;99406.69;5084011;28;20191;-70
2023/08/16 05:21:30;;;;;;;10.53;9.20;;;;;;;26.68;69.37;99404.47;5093038;28;20569;-70
2023/08/16 05:23:56;;;;;;;11.13;8.80;;;;;;;26.69;69.62;99405.28;5093180;28;20195;-71
2023/08/16 05:26:23;;;;;;;10.07;9.07;;;;;;;26.68;69.45;99409.13;5092906;28;20248;-71
2023/08/16 05:28:51;;;;;;;12.53;9.20;;;;;;;26.68;69.54;99406.38;5082213;28;20274;-73
2023/08/16 05:31:18;;;;;;;15.00;9.60;;;;;;;26.78;69.21;99411.66;5072966;28;20226;-71
2023/08/16 05:33:44;;;;;;;10.87;9.83;;;;;;;26.86;69.10;99409.00;5072469;28;20200;-74
2023/08/16 05:36:11;;;;;;;10.27;9.10;;;;;;;26.90;68.21;99398.31;5072323;28;20204;-72
2023/08/16 05:38:38;;;;;;;9.10;8.50;;;;;;;26.95;69.03;99414.56;5079808;28;20251;-72
2023/08/16 05:41:05;;;;;;;18.17;9.83;;;;;;;26.96;68.80;99402.53;5091899;28;20712;-79
2023/08/16 05:43:31;;;;;;;10.87;9.77;;;;;;;27.04;67.63;99407.28;5092515;28;20187;-79
2023/08/16 05:46:00;;;;;;;15.23;9.53;;;;;;;27.12;68.75;99406.56;5091955;28;20191;-80
2023/08/16 05:48:26;;;;;;;20.00;10.03;;;;;;;27.17;68.14;99410.00;5071641;28;20223;-78
2023/08/16 05:50:53;;;;;;;9.77;9.07;;;;;;;27.16;68.39;99410.28;5071474;28;20258;-77
2023/08/16 05:53:20;;;;;;;15.87;9.53;;;;;;;26.99;68.25;99393.75;5071704;28;20655;-78
2023/08/16 05:55:47;;;;;;;17.73;9.13;;;;;;;27.06;68.85;99403.13;5071730;28;20196;-78
2023/08/16 05:58:13;;;;;;;12.50;8.60;;;;;;;27.11;68.70;99407.69;5089727;28;20199;-79
2023/08/16 06:00:40;;;;;;;11.57;8.90;;;;;;;27.14;68.61;99407.88;5092250;28;20195;-77
2023/08/16 06:03:08;;;;;;;11.43;8.93;;;;;;;27.27;67.91;99411.72;5091509;28;20756;-77
2023/08/16 06:05:35;;;;;;;11.13;9.97;;;;;;;27.28;68.22;99405.16;5088430;28;20755;-73
2023/08/16 06:08:02;;;;;;;10.93;9.33;;;;;;;27.37;68.07;99412.31;5077626;28;20314;-75
2023/08/16 06:10:28;;;;;;;11.10;9.30;;;;;;;27.49;67.41;99415.31;5079438;28;20238;-78
2023/08/16 06:12:58;;;;;;;12.47;9.13;;;;;;;27.59;67.08;99408.78;5082466;28;20183;-75
2023/08/16 06:15:25;;;;;;;13.00;9.63;;;;;;;27.72;66.21;99414.19;5085810;28;20203;-75
2023/08/16 06:17:51;;;;;;;9.50;8.60;;;;;;;27.81;65.99;99411.53;5079536;28;20256;-73
2023/08/16 06:20:20;;;;;;;9.47;8.20;;;;;;;27.93;65.50;99417.28;5091546;28;20195;-63
2023/08/16 06:22:46;;;;;;;27.90;10.27;;;;;;;28.00;65.46;99429.38;5092276;28;20195;-64
2023/08/16 06:25:13;;;;;;;10.90;8.67;;;;;;;27.92;65.71;99415.63;5091492;28;20199;-64
2023/08/16 06:27:40;;;;;;;15.03;9.50;;;;;;;27.86;65.92;99425.91;5089979;28;20200;-64
2023/08/16 06:30:07;;;;;;;9.73;8.60;;;;;;;27.82;66.02;99413.19;5082690;28;20254;-65
2023/08/16 06:32:34;;;;;;;13.30;8.97;;;;;;;27.80;66.56;99410.72;5072037;28;20592;-64
2023/08/16 06:35:03;;;;;;;14.07;9.37;;;;;;;27.89;66.44;99408.09;5071834;28;20195;-65
2023/08/16 06:37:32;;;;;;;10.17;9.10;;;;;;;27.92;66.13;99404.72;5070709;28;20710;-64
2023/08/16 06:39:58;;;;;;;10.23;9.33;;;;;;;27.83;66.16;99398.41;5091793;28;20199;-65
2023/08/16 06:42:25;;;;;;;13.63;8.67;;;;;;;27.96;66.29;99406.53;5091112;28;20289;-64
2023/08/16 06:44:52;;;;;;;19.47;9.57;;;;;;;28.00;65.64;99410.25;5090962;28;20225;-65
2023/08/16 06:47:18;;;;;;;13.67;8.37;;;;;;;28.02;65.48;99407.22;5090981;28;20194;-65
2023/08/16 06:49:45;;;;;;;10.03;8.90;;;;;;;28.12;65.21;99409.66;5084961;28;20208;-65
2023/08/16 06:52:12;;;;;;;9.17;8.23;;;;;;;28.31;64.62;99407.53;5071350;28;20196;-66
2023/08/16 06:54:42;;;;;;;9.30;8.17;;;;;;;28.45;63.73;99411.00;5071623;28;20200;-65
2023/08/16 06:57:09;;;;;;;13.70;9.20;;;;;;;28.70;62.95;99402.09;5071179;28;20184;-66
2023/08/16 06:59:37;;;;;;;9.23;8.43;;;;;;;28.95;62.27;99409.59;5070633;28;20196;-65
2023/08/16 07:02:04;;;;;;;13.37;8.73;;;;;;;29.23;61.32;99407.44;5079441;28;20191;-64
2023/08/16 07:04:33;;;;;;;12.13;8.10;;;;;;;29.45;60.56;99410.00;5081050;28;20245;-65
2023/08/16 07:07:00;;;;;;;10.40;8.30;;;;;;;29.72;59.67;99418.75;5082754;28;20195;-65
2023/08/16 07:09:27;;;;;;;9.87;8.87;;;;;;;29.85;58.73;99420.53;5089342;28;20304;-65
2023/08/16 07:11:55;;;;;;;9.27;8.47;;;;;;;30.03;57.85;99408.41;5091572;28;20709;-65
2023/08/16 07:14:22;;;;;;;14.27;8.07;;;;;;;30.25;57.37;99410.94;5091073;28;20257;-65
2023/08/16 07:16:49;;;;;;;13.70;8.50;;;;;;;30.38;56.84;99415.41;5075032;28;20196;-70
2023/08/16 07:19:15;;;;;;;10.27;8.40;;;;;;;30.45;56.00;99415.72;5070494;28;20195;-65
2023/08/16 07:21:42;;;;;;;20.33;8.50;;;;;;;30.56;56.48;99414.25;5070869;28;20279;-72
2023/08/16 07:24:09;;;;;;;9.33;8.40;;;;;;;30.51;56.09;99411.69;5070666;28;20204;-74
2023/08/16 07:26:35;;;;;;;13.23;8.27;;;;;;;30.61;56.08;99414.06;5083632;28;20248;-72
2023/08/16 07:29:04;;;;;;;17.37;9.73;;;;;;;30.62;56.00;99420.34;5090997;28;20226;-72
2023/08/16 07:31:30;;;;;;;11.17;9.17;;;;;;;30.57;56.20;99407.63;5088808;28;20252;-71
2023/08/16 07:33:57;;;;;;;13.53;8.53;;;;;;;30.68;55.03;99408.88;5090089;28;20742;-72
2023/08/16 07:36:24;;;;;;;9.60;8.60;;;;;;;30.83;55.15;99416.56;5076293;28;20587;-72
2023/08/16 07:38:50;;;;;;;9.07;8.20;;;;;;;30.96;54.36;99423.78;5069478;28;20227;-74
2023/08/16 07:41:17;;;;;;;8.83;8.00;;;;;;;30.85;54.23;99408.00;5068687;28;20550;-72
2023/08/16 07:43:44;;;;;;;9.10;8.17;;;;;;;30.96;54.65;99414.72;5069041;28;20245;-72
2023/08/16 07:46:12;;;;;;;11.80;8.07;;;;;;;31.00;54.32;99408.25;5078456;28;20690;-72
2023/08/16 07:48:38;;;;;;;14.13;8.23;;;;;;;31.00;53.53;99405.50;5088907;28;20188;-72
2023/08/16 07:51:05;;;;;;;10.33;8.13;;;;;;;31.13;53.42;99415.44;5089351;28;20276;-72
2023/08/16 07:53:32;;;;;;;10.30;8.93;;;;;;;31.30;53.04;99420.03;5087087;28;20219;-71
2023/08/16 07:55:58;;;;;;;11.87;8.50;;;;;;;31.42;52.67;99414.59;5069582;28;20261;-73
2023/08/16 07:58:25;;;;;;;8.47;7.60;;;;;;;31.55;51.77;99416.28;5073981;28;20203;-72
2023/08/16 08:00:54;;;;;;;13.37;9.13;;;;;;;31.66;51.30;99421.06;5091374;28;20272;-74
2023/08/16 08:03:23;;;;;;;9.03;8.10;;;;;;;31.63;51.62;99418.97;5093644;28;20282;-72
2023/08/16 08:05:50;;;;;;;11.33;9.23;;;;;;;31.61;51.55;99407.50;5074745;28;20196;-73
2023/08/16 08:08:17;;;;;;;10.13;7.70;;;;;;;31.71;51.23;99420.03;5080581;28;20198;-73
2023/08/16 08:10:44;;;;;;;14.23;7.93;;;;;;;31.66;51.58;99415.56;5075401;28;20737;-73
2023/08/16 08:13:12;;;;;;;9.80;8.40;;;;;;;31.55;51.50;99411.59;5074891;28;20199;-72
2023/08/16 08:15:38;;;;;;;8.90;8.10;;;;;;;31.62;51.48;99422.03;5081241;28;20260;-73
2023/08/16 08:18:05;;;;;;;10.87;7.57;;;;;;;31.49;50.66;99426.69;5092132;28;20195;-72
2023/08/16 08:20:33;;;;;;;7.93;7.07;;;;;;;31.51;51.08;99416.16;5092745;28;20276;-73
2023/08/16 08:23:00;;;;;;;11.73;7.67;;;;;;;31.56;50.70;99412.41;5086993;28;20257;-71
2023/08/16 08:25:27;;;;;;;9.63;7.63;;;;;;;31.66;50.73;99412.81;5083860;28;20634;-72
2023/08/16 08:27:54;;;;;;;8.77;7.47;;;;;;;31.75;49.92;99413.53;5085352;28;20187;-72
2023/08/16 08:30:21;;;;;;;10.07;7.70;;;;;;;31.80;50.04;99412.56;5083415;28;20567;-71
2023/08/16 08:32:48;;;;;;;8.50;7.70;;;;;;;31.84;49.17;99428.03;5093269;28;20714;-72
2023/08/16 08:35:15;;;;;;;8.70;8.00;;;;;;;31.67;49.71;99414.41;5093932;28;20196;-71
2023/08/16 08:37:43;;;;;;;9.27;8.57;;;;;;;31.56;50.46;99417.91;5088380;28;20247;-71
2023/08/16 08:40:09;;;;;;;9.20;8.00;;;;;;;31.54;51.68;99415.50;5094405;28;20248;-72
2023/08/16 08:42:37;;;;;;;9.67;8.17;;;;;;;31.64;50.92;99420.56;5094675;28;20223;-71
2023/08/16 08:45:06;;;;;;;8.13;7.23;;;;;;;31.80;49.76;99424.34;5094846;28;20282;-72
2023/08/16 08:47:33;;;;;;;8.37;7.57;;;;;;;31.89;48.71;99416.81;5091626;28;20252;-73
2023/08/16 08:50:02;;;;;;;10.13;6.93;;;;;;;32.11;47.57;99413.69;5077093;28;20775;-74
2023/08/16 08:52:30;;;;;;;8.47;7.47;;;;;;;32.19;46.38;99414.75;5088991;28;20199;-74
2023/08/16 08:54:59;;;;;;;10.50;7.10;;;;;;;32.30;46.21;99416.75;5092167;28;20206;-72
2023/08/16 08:57:27;;;;;;;10.23;6.53;;;;;;;32.44;46.10;99421.94;5093773;28;20227;-74
2023/08/16 08:59:57;;;;;;;7.83;7.07;;;;;;;32.41;46.05;99417.91;5092855;28;20199;-73
2023/08/16 09:02:25;;;;;;;7.57;6.77;;;;;;;32.42;45.85;99411.25;5078056;28;20203;-74
2023/08/16 09:04:53;;;;;;;11.50;6.67;;;;;;;32.66;45.45;99419.56;5072116;28;20248;-74
2023/08/16 09:07:22;;;;;;;7.53;6.63;;;;;;;32.76;44.98;99419.13;5081545;28;20195;-74
2023/08/16 09:09:49;;;;;;;6.43;5.80;;;;;;;32.74;44.85;99410.38;5071935;28;20226;-76
2023/08/16 09:12:18;;;;;;;7.60;7.10;;;;;;;32.81;44.58;99418.09;5083599;28;20274;-74
2023/08/16 09:14:45;;;;;;;8.77;7.22;;;;;;;32.85;44.80;99411.56;5090064;28;20263;-74
2023/08/16 09:17:12;;;;;;;7.73;7.03;;;;;;;32.97;44.45;99408.81;5091362;28;20191;-65
2023/08/16 09:19:44;;;;;;;8.27;7.43;;;;;;;33.05;44.58;99404.34;5087399;28;20191;-66
2023/08/16 09:22:11;;;;;;;10.13;8.13;;;;;;;32.91;44.62;99407.44;5090844;28;20195;-66
2023/08/16 09:24:38;;;;;;;15.47;7.57;;;;;;;32.82;44.58;99411.44;5092578;28;20716;-66
2023/08/16 09:27:05;;;;;;;7.67;7.07;;;;;;;32.64;45.33;99399.03;5093100;28;20268;-65
2023/08/16 09:29:33;;;;;;;10.83;7.93;;;;;;;32.44;45.92;99400.75;5082690;28;20191;-65
2023/08/16 09:31:59;;;;;;;8.77;7.67;;;;;;;32.50;46.15;99399.38;5091893;28;20260;-65
2023/08/16 09:34:26;;;;;;;9.87;7.80;;;;;;;32.58;45.44;99405.94;5090333;28;20191;-64
2023/08/16 09:36:53;;;;;;;9.33;7.13;;;;;;;32.58;44.92;99406.72;5092443;28;20203;-65
2023/08/16 09:39:25;;;;;;;8.53;7.73;;;;;;;32.51;44.88;99403.72;5091609;28;20632;-64
2023/08/16 09:41:52;;;;;;;10.80;8.23;;;;;;;32.44;45.67;99406.25;5092601;28;20195;-65
2023/08/16 09:44:19;;;;;;;8.33;7.50;;;;;;;32.08;47.05;99391.56;5091279;28;20195;-63
2023/08/16 09:46:48;;;;;;;9.70;8.00;;;;;;;32.11;46.67;99408.22;5091034;28;20202;-66
2023/08/16 09:49:14;;;;;;;8.43;7.63;;;;;;;31.98;46.99;99408.50;5092546;28;20215;-64
2023/08/16 09:51:41;;;;;;;8.03;7.43;;;;;;;31.91;46.81;99420.03;5086603;28;20215;-63
2023/08/16 09:54:13;;;;;;;8.33;7.07;;;;;;;31.95;46.58;99414.66;5077555;28;20331;-64
2023/08/16 09:56:40;;;;;;;14.17;8.27;;;;;;;32.08;46.39;99408.88;5092546;28;20226;-64
2023/08/16 09:59:08;;;;;;;8.23;7.40;;;;;;;32.22;45.78;99409.34;5092337;28;20663;-64
2023/08/16 10:01:36;;;;;;;12.17;7.43;;;;;;;32.32;45.86;99406.22;5076759;28;20196;-63
2023/08/16 10:04:05;;;;;;;8.53;6.97;;;;;;;32.27;45.89;99417.41;5073359;28;20287;-64
2023/08/16 10:06:33;;;;;;;8.17;7.33;;;;;;;32.31;45.80;99418.38;5077158;28;20191;-65
2023/08/16 10:09:02;;;;;;;12.80;7.10;;;;;;;32.32;45.03;99414.47;5079858;28;20261;-64
2023/08/16 10:11:29;;;;;;;11.67;7.10;;;;;;;32.56;45.06;99414.50;5073414;28;20211;-64
2023/08/16 10:13:56;;;;;;;7.70;7.10;;;;;;;32.75;44.51;99411.19;5084877;28;20200;-64
2023/08/16 10:16:26;;;;;;;12.83;7.50;;;;;;;32.91;44.11;99410.19;5091258;28;20767;-65
2023/08/16 10:18:55;;;;;;;11.57;7.63;;;;;;;33.03;43.90;99421.19;5092004;28;20191;-64
2023/08/16 10:21:25;;;;;;;34.53;8.80;;;;;;;32.95;44.91;99416.59;5075624;28;20192;-65
2023/08/16 10:23:54;;;;;;;27.05;8.45;;;;;;;33.02;44.47;99416.84;5088631;28;20252;-66
2023/08/16 10:26:23;;;;;;;9.48;7.20;;;;;;;33.12;43.03;99415.56;5091641;28;20203;-65
2023/08/16 10:28:52;;;;;;;8.50;7.05;;;;;;;33.30;43.05;99422.41;5092306;28;20214;-66
2023/08/16 10:31:24;;;;;;;11.90;7.18;;;;;;;33.50;42.49;99431.69;5090152;28;20634;-66
2023/08/16 10:33:53;;;;;;;7.70;6.95;;;;;;;33.58;42.07;99428.00;5091817;28;20573;-66
2023/08/16 10:36:20;;;;;;;7.90;7.15;;;;;;;33.59;41.89;99424.13;5091344;28;20209;-64
2023/08/16 10:38:55;;;;;;;13.02;7.60;;;;;;;33.77;41.50;99411.66;5091515;28;20227;-65
2023/08/16 10:41:22;;;;;;;9.60;7.38;;;;;;;34.15;41.78;99400.91;5088437;28;20196;-66
2023/08/16 10:43:51;;;;;;;13.95;7.50;;;;;;;34.17;40.66;99407.69;5091465;28;20191;-65
2023/08/16 10:46:27;;;;;;;8.93;6.85;;;;;;;34.07;40.34;99401.88;5091574;28;20195;-65
2023/08/16 10:48:57;;;;;;;8.90;7.13;;;;;;;33.98;41.12;99401.25;5082377;28;20223;-63
2023/08/16 10:51:24;;;;;;;10.73;7.18;;;;;;;33.87;41.18;99400.94;5088842;28;20207;-66
2023/08/16 10:53:52;;;;;;;9.35;7.43;;;;;;;33.85;41.11;99399.69;5091556;28;20252;-65
2023/08/16 10:56:19;;;;;;;8.57;8.05;;;;;;;33.81;41.04;99398.75;5091049;28;20199;-65
2023/08/16 10:58:49;;;;;;;10.90;7.30;;;;;;;34.09;40.75;99394.06;5091131;28;20548;-65
2023/08/16 11:01:16;;;;;;;15.23;7.05;;;;;;;34.31;40.27;99390.75;5088423;28;20203;-66
2023/08/16 11:03:43;;;;;;;9.45;7.20;;;;;;;34.31;39.92;99376.94;5082726;28;20735;-66
2023/08/16 11:06:11;;;;;;;7.35;6.53;;;;;;;34.36;40.02;99383.00;5079730;28;20196;-66
2023/08/16 11:08:41;;;;;;;7.95;7.18;;;;;;;34.47;39.53;99372.25;5080154;28;20203;-64
2023/08/16 11:11:10;;;;;;;20.30;7.07;;;;;;;34.55;39.84;99374.00;5072700;28;20299;-65
2023/08/16 11:13:37;;;;;;;9.32;7.25;;;;;;;34.64;39.30;99378.19;5075988;28;20210;-65
2023/08/16 11:16:04;;;;;;;11.77;6.75;;;;;;;34.73;39.95;99370.53;5091086;28;20195;-64
2023/08/16 11:18:32;;;;;;;7.97;7.25;;;;;;;34.87;39.81;99381.16;5091196;28;20218;-64
2023/08/16 11:21:00;;;;;;;7.20;6.53;;;;;;;34.94;38.92;99375.78;5090614;28;20578;-65
2023/08/16 11:23:33;;;;;;;7.53;6.75;;;;;;;34.95;38.26;99372.66;5090042;28;20248;-64
2023/08/16 11:26:01;;;;;;;9.07;7.25;;;;;;;34.82;38.87;99365.66;5088851;28;20282;-66
2023/08/16 11:28:30;;;;;;;8.10;7.07;;;;;;;34.75;39.56;99354.41;5088849;28;20191;-66